This is the latest recevied weather packets stored in our database for station/object E22ZMG-2. If no packets are shown the sender has not sent any weather packets the latest 10 day(s).
| Time | Temp. | Humidity | Pressure | Rain* | Wind** | Luminosity | Snow |
|---|---|---|---|---|---|---|---|
| 1777914042 | 30° C | 51% | 929 hPa | - | - | 0 W/m² | - |
| 1777913417 | 30.56° C | 51% | 929 hPa | - | - | 0 W/m² | - |
| 1777912793 | 30° C | 52% | 928 hPa | - | - | 0 W/m² | - |
| 1777912169 | 30° C | 52% | 928 hPa | - | - | 0 W/m² | - |
| 1777911544 | 30.56° C | 51% | 928 hPa | - | - | 0 W/m² | - |
| 1777910920 | 30° C | 52% | 928 hPa | - | - | 0 W/m² | - |
| 1777910296 | 30.56° C | 51% | 928 hPa | - | - | 0 W/m² | - |
| 1777909672 | 30° C | 52% | 927 hPa | - | - | 0 W/m² | - |
| 1777909048 | 30.56° C | 51% | 927 hPa | - | - | 0 W/m² | - |
| 1777908424 | 31.11° C | 50% | 927 hPa | - | - | 0 W/m² | - |
| 1777907800 | 31.11° C | 50% | 927 hPa | - | - | 0 W/m² | - |
| 1777907176 | 31.11° C | 49% | 927 hPa | - | - | 0 W/m² | - |
| 1777906552 | 30.56° C | 51% | 927 hPa | - | - | 0 W/m² | - |
| 1777905928 | 31.11° C | 48% | 926 hPa | - | - | 0 W/m² | - |
| 1777905304 | 31.11° C | 48% | 926 hPa | - | - | 0 W/m² | - |
| 1777904680 | 31.67° C | 48% | 926 hPa | - | - | 0 W/m² | - |
| 1777904056 | 31.67° C | 47% | 926 hPa | - | - | 0 W/m² | - |
| 1777903432 | 31.67° C | 47% | 926 hPa | - | - | 0 W/m² | - |
| 1777902807 | 31.67° C | 47% | 926 hPa | - | - | 0 W/m² | - |
| 1777902183 | 32.22° C | 45% | 926 hPa | - | - | 0 W/m² | - |
| 1777901560 | 32.22° C | 45% | 926 hPa | - | - | 0 W/m² | - |
| 1777900935 | 32.22° C | 45% | 925 hPa | - | - | 0 W/m² | - |
| 1777900311 | 32.22° C | 46% | 925 hPa | - | - | 0 W/m² | - |
| 1777899687 | 32.22° C | 46% | 925 hPa | - | - | 0 W/m² | - |
| 1777899063 | 31.67° C | 47% | 925 hPa | - | - | 0 W/m² | - |
* Rain since midnight (hover to see other rain measurements)
** Current wind speed in m/s (hover to see current wind gust speed)